Alex Barbosa

Ojeador - Santos
6 Ene 2028
Jueves
Continuar

Personalidad

Adaptabilidad (8) Ambición (9) Controversia (17) Lealtad (19) Presión (13) Profesionalismo (10) Deportividad (1) Temperamento (20)

Perfil

Estilo de dirección Democrático
Licencia Continental A
Determinación 12
Gestión de personas 7
Motivación 6
Disciplina 10
Satisfacción laboral
68%
Fatiga
0%
Cargo Ojeador
Salario 29.4K p/s
Contrato 14.03.2029

Rendimiento

Comportamiento Bueno
Efectividad del entrenamiento
38%
Desarrollo de jugadores
40%
Prevención de lesiones
25%
Implementación táctica
35%

Eventos recientes

Asistió a una reunión de captación 7d atrás
Asistió a una reunión de captación 7d atrás
Asistió a una reunión de captación 14d atrás
Asistió a una reunión de captación 21d atrás
Asistió a una reunión de captación 28d atrás
Recomendó un objetivo de fichaje 28d atrás
Presentó un informe a la directiva 28d atrás
Asistió a una reunión de captación 35d atrás

Actualmente siguiendo

131
Jugador Club Estado Habilidad Confianza Observado Última observación Último voto
Ferreirinha Sport Recife Perdido 130 / 124 65% 1 05.07.2027 Aprobar
Callum Brittain Middlesbrough Activo 137 / 143 40% 1 31.05.2027 -
Sorba Thomas Stoke City Activo 130 / 143 40% 3 29.05.2027 -
Jacob Ramsey Newcastle United Activo 153 / 165 40% 1 29.05.2027 -
Amine Adli Bournemouth Activo 150 / 129 40% 1 28.05.2027 -
Kiernan Dewsbury-Hall Everton Activo 164 / 160 40% 2 27.05.2027 -
James Maddison Tottenham Activo 172 / 166 40% 1 27.05.2027 -
Nordi Mukiele Sunderland Activo 156 / 130 40% 1 27.05.2027 -
Jacques Ekomié Wrexham Activo 136 / 132 40% 1 27.05.2027 -
Kevin Fulham Activo 149 / 158 40% 3 25.05.2027 -
Will Lankshear Middlesbrough Activo 117 / 125 40% 1 25.05.2027 -
Bojan Radulović Huddersfield Town Activo 115 / 121 40% 1 25.05.2027 -
Curtis Jones Inter Activo 157 / 166 40% 3 23.05.2027 -
Francisco Conceição Juventus Activo 162 / 155 40% 1 23.05.2027 Más información
Anton Stach Leeds United Activo 151 / 159 40% 3 22.05.2027 -
Nico González Newcastle United Activo 155 / 176 40% 2 22.05.2027 -
Amadou Onana Aston Villa Activo 165 / 172 40% 2 21.05.2027 -
Quinten Timber Crystal Palace Activo 149 / 158 40% 1 21.05.2027 -
Benjamin White Arsenal Perdido 148 / 149 40% 2 20.05.2027 -
Igor Burnley Activo 155 / 133 40% 1 20.05.2027 -
Kenan Yıldız Juventus Activo 164 / 154 40% 1 19.05.2027 Más información
Finn Azaz Southampton Activo 118 / 138 40% 4 18.05.2027 -
Dango Ouattara Brentford Activo 146 / 148 40% 4 18.05.2027 -
Morgan Whittaker Middlesbrough Activo 145 / 142 40% 3 17.05.2027 -
Dávid Strelec Middlesbrough Activo 130 / 151 40% 1 17.05.2027 -
Tom Cannon Sheffield United Activo 143 / 121 40% 1 17.05.2027 -
Óscar Mingueza Crystal Palace Activo 150 / 158 40% 1 15.05.2027 -
Toby Collyer West Bromwich Albion Activo 145 / 119 40% 2 14.05.2027 -
Jan Paul van Hecke Tottenham Activo 155 / 141 40% 2 14.05.2027 -
Léo Scienza Southampton Activo 140 / 139 40% 1 14.05.2027 -
Callum Doyle Wrexham Activo 118 / 149 40% 1 12.05.2027 -
Georginio Rutter Brighton Activo 157 / 164 40% 2 10.05.2027 -
Kerem Aktürkoğlu Fenerbahce Activo 152 / 155 40% 1 09.05.2027 -
Aune Heggebø West Bromwich Albion Activo 120 / 129 40% 6 05.05.2027 -
Luis Vázquez Birmingham Activo 128 / 135 40% 2 05.05.2027 -
Japhet Tanganga Sheffield United Activo 131 / 128 40% 2 01.05.2027 -
Ryan Sessegnon Fulham Activo 153 / 148 40% 1 29.04.2027 -
Borja Sainz Fiorentina Activo 150 / 127 40% 4 26.04.2027 -
Ilyas Ansah Hull City Activo 129 / 117 40% 1 26.04.2027 -
Víctor Dávila Club America Activo 128 / 147 40% 1 23.04.2027 -
Sergi Altimira Sporting CP Activo 127 / 131 40% 2 22.04.2027 -
Rodrigo Zalazar Sporting CP Activo 144 / 142 40% 3 21.04.2027 -
Xavi Simons Tottenham Activo 150 / 140 40% 1 21.04.2027 -
Pau Víctor AVS Activo 133 / 137 40% 5 19.04.2027 -
Hwang In-Beom Porto Activo 150 / 137 40% 2 19.04.2027 -
Thiago Brentford Activo 156 / 150 40% 1 19.04.2027 -
Iván Fresneda Sporting CP Activo 131 / 140 40% 7 18.04.2027 -
Jake O'Brien Everton Activo 141 / 154 40% 1 15.04.2027 -
Kyle Walker-Peters West Ham United Activo 146 / 142 40% 6 13.04.2027 -
Jesús Angulo Tigres Activo 133 / 119 40% 4 13.04.2027 -
Sikou Niakaté Braga Activo 143 / 132 40% 3 10.04.2027 -
Luke McNally Bristol City Activo 120 / 136 40% 1 10.04.2027 -
Ethan Galbraith Swansea City Activo 147 / 120 40% 1 08.04.2027 -
Víctor Gómez Braga Activo 132 / 155 40% 1 08.04.2027 -
Ozziel Herrera Tigres Activo 143 / 134 40% 2 07.04.2027 -
Brian Rodríguez Club America Activo 117 / 113 40% 1 07.04.2027 -
Riley McGree Middlesbrough Activo 122 / 125 40% 1 06.04.2027 -
Agustín Palavecino Cruz Azul Activo 134 / 135 40% 3 04.04.2027 -
João Simões Sporting CP Activo 142 / 138 40% 2 03.04.2027 -
Jesús Ricardo Angulo Toluca Activo 146 / 123 40% 1 03.04.2027 -
Roberto Fernández Braga Activo 140 / 128 40% 5 02.04.2027 -
Pepê Porto Activo 154 / 147 40% 2 02.04.2027 -
Figueiredo Alverca Activo 128 / 113 40% 3 30.03.2027 -
Tomás Araújo Benfica Activo 145 / 151 40% 2 30.03.2027 -
Jhon Arias Palmeiras Activo 139 / 140 40% 1 28.03.2027 -
Rafik Guitane Estoril Praia Activo 120 / 137 40% 1 27.03.2027 -
Andrea Pinamonti Lazio Activo 137 / 140 40% 1 27.03.2027 -
Richard Koné Queens Park Rangers Activo 127 / 126 40% 1 27.03.2027 -
Gonçalo Inácio Sporting CP Activo 144 / 138 40% 4 25.03.2027 -
Max Bird Birmingham Activo 118 / 145 40% 1 25.03.2027 -
Joaquín Panichelli Le Havre AC Activo 149 / 156 40% 1 23.03.2027 -
Gianluca Prestianni Benfica Activo 149 / 154 40% 2 19.03.2027 -
Javi Sánchez Arouca Activo 135 / 132 40% 2 18.03.2027 -
Welington Southampton Activo 146 / 144 40% 1 18.03.2027 -
Milan van Ewijk Mansfield Town Activo 133 / 123 40% 1 16.03.2027 -
Bright Arrey-Mbi Braga Activo 148 / 123 40% 1 14.03.2027 -
Jalen Blesa Rio Ave Activo 127 / 131 40% 2 10.03.2027 -
Duk Atlas Activo 130 / 107 40% 1 10.03.2027 -
Dawda Camara Alverca Activo 115 / 118 40% 1 07.03.2027 -
Evidence Makgopa Orlando Pirates Activo 100 / 128 40% 1 06.03.2027 -
Robert Mizo Ashanti Gold Activo 101 / 111 40% 1 06.03.2027 -
Zeno Debast Sporting CP Activo 147 / 159 40% 2 04.03.2027 -
Dylan Nandín Arouca Activo 118 / 105 40% 1 04.03.2027 -
Alberto Costa Porto Activo 147 / 145 40% 1 04.03.2027 -
Luís Esteves Atlas Activo 120 / 118 40% 1 28.02.2027 -
Lucas Duarte Felgueiras Activo 106 / 120 40% 1 24.02.2027 -
Martín Tejón Maritimo Activo 108 / 135 40% 2 23.02.2027 -
Henrique Araújo Casa Pia Activo 112 / 109 40% 2 23.02.2027 -
Gabriel Veron Porto Activo 130 / 133 40% 3 20.02.2027 -
Gerardo Arteaga Monterrey Activo 147 / 127 40% 1 12.02.2027 -
Aidan Morris Middlesbrough Activo 143 / 142 40% 1 10.02.2027 -
Jan Bednarek Porto Activo 134 / 146 40% 1 09.02.2027 -
José Hurtado Bragantino Activo 121 / 129 40% 1 03.02.2027 -
Ianis Stoica Estrela da Amadora Activo 127 / 103 40% 1 02.02.2027 -
Lucas Ramon Sport Recife Perdido 113 / 136 55% 1 28.12.2026 Observar
Toni Tamarit Alverca Activo 99 / 106 40% 1 25.11.2026 -
Ainsley Maitland-Niles Everton Activo 135 / 143 40% 1 25.11.2026 -
Themba Ngcobo SuperSport United Activo 133 / 99 40% 1 25.11.2026 -
Alfonso Trezza Arouca Activo 118 / 121 40% 4 23.11.2026 -
Wilson Isidor Sunderland Activo 121 / 136 40% 1 19.11.2026 -
Christian Krasnodar Activo 132 / 124 40% 1 15.11.2026 -
Renan Lodi Atlético Mineiro Activo 147 / 135 40% 1 14.11.2026 -
Adam Wharton Crystal Palace Activo 165 / 163 40% 1 12.11.2026 -
Gonzalo Fulham Activo 140 / 152 40% 1 11.11.2026 -
Thorgan Witsel KV Oostende Activo 132 / 139 40% 1 02.11.2026 -
Jean Lucas Bahia Activo 125 / 121 40% 1 29.10.2026 -
Gustaf Lagerbielke Braga Activo 123 / 121 40% 1 27.10.2026 -
Lorent Tolaj Plymouth Argyle Activo 122 / 99 40% 1 24.10.2026 -
Manuel Ospina Cortulua Activo 130 / 114 40% 2 23.10.2026 -
Zé Leite Leixões Activo 122 / 117 40% 2 22.10.2026 -
Nicolò Tresoldi Club Brugge Activo 141 / 131 40% 1 15.10.2026 -
Jacob Greaves Ipswich Town Activo 138 / 126 40% 1 14.10.2026 -
Wessam Abou Ali Columbus Crew Activo 121 / 132 40% 1 11.10.2026 -
Adnan Courtois KV Oostende Activo 117 / 132 40% 1 08.10.2026 -
Bénie Traoré New York City Activo 119 / 141 40% 1 28.09.2026 -
Guilherme Arana Fluminense Activo 126 / 143 40% 1 19.09.2026 -
Fally Mayulu Arouca Activo 116 / 96 40% 1 10.09.2026 -
Vitinho Internacional Activo 131 / 116 40% 1 10.09.2026 -
Victor Froholdt Porto Activo 146 / 176 40% 2 08.09.2026 -
Ibrahim Sangaré Nottingham Forest Activo 144 / 145 40% 1 08.09.2026 -
Heorhii Sudakov Benfica Activo 134 / 133 40% 1 06.09.2026 -
Mathías Villasanti Grêmio Activo 124 / 129 40% 1 05.09.2026 -
Alex Scott Bournemouth Activo 145 / 152 40% 1 03.09.2026 -
Rémi Lemoine Chamois Niortais Activo 170 / 142 40% 1 26.08.2026 Más información
Allan Saint-Maximin Charlotte Football Club Activo 136 / 145 40% 1 26.08.2026 -
Luís Guilherme Sporting CP Activo 110 / 149 40% 1 19.08.2026 -
Leandro Barreiro Benfica Activo 151 / 138 40% 1 10.08.2026 -
Geny Sporting CP Activo 139 / 126 40% 1 10.08.2026 -
Yoane Wissa Newcastle United Activo 142 / 144 40% 1 06.08.2026 -
Vitor Carvalho Braga Activo 136 / 128 40% 1 03.08.2026 -
Pablo Rosario Porto Activo 139 / 117 40% 1 01.08.2026 -